Time;durP1;ratioP1;P1;durP2;ratioP2;P2;SDS_P1;SDS_P2;PMS_P1;PMS_P2;Temp;Humidity;BMP_temperature;BMP_pressure;BME280_temperature;BME280_humidity;BME280_pressure;Samples;Min_cycle;Max_cycle;Signal;HPM_P1;HPM_P2
2023/04/16 00:03:41;;;;;;;5.60;4.17;;;10.40;99.90;;;;;;20838035;28;20752;-66
2023/04/16 00:13:44;;;;;;;4.87;4.37;;;10.50;99.90;;;;;;20836391;28;20233;-66
2023/04/16 00:23:45;;;;;;;6.60;4.70;;;10.40;99.90;;;;;;20836130;28;20214;-67
2023/04/16 00:33:47;;;;;;;8.33;5.33;;;10.40;99.90;;;;;;20835449;28;20249;-65
2023/04/16 00:43:49;;;;;;;8.50;5.50;;;10.40;99.90;;;;;;20834453;28;20213;-66
2023/04/16 00:53:51;;;;;;;9.13;6.60;;;10.30;99.90;;;;;;20833780;28;20238;-68
2023/04/16 01:03:54;;;;;;;8.60;6.30;;;10.30;99.90;;;;;;20833271;28;20211;-68
2023/04/16 01:13:55;;;;;;;9.63;6.60;;;10.40;99.90;;;;;;20832373;28;20708;-68
2023/04/16 01:24:00;;;;;;;7.53;6.10;;;10.30;99.90;;;;;;20832066;28;20208;-68
2023/04/16 01:34:02;;;;;;;7.30;5.83;;;10.30;99.90;;;;;;20830975;28;20260;-65
2023/04/16 01:44:04;;;;;;;8.73;6.57;;;10.20;99.90;;;;;;20830932;28;20275;-67
2023/04/16 01:54:05;;;;;;;8.23;6.50;;;10.20;99.90;;;;;;20830484;28;20235;-67
2023/04/16 02:04:07;;;;;;;10.47;8.07;;;10.20;99.90;;;;;;20830426;28;20718;-68
2023/04/16 02:14:09;;;;;;;9.73;7.83;;;10.20;99.90;;;;;;20829299;28;20230;-66
2023/04/16 02:24:11;;;;;;;11.57;9.17;;;10.20;99.90;;;;;;20828703;28;20252;-67
2023/04/16 02:34:12;;;;;;;15.67;10.13;;;10.20;99.90;;;;;;20828374;28;20235;-67
2023/04/16 02:44:14;;;;;;;16.40;11.70;;;;;;;;;;20840907;28;20211;-68
2023/04/16 02:54:16;;;;;;;16.73;12.07;;;10.20;99.90;;;;;;20843106;28;20234;-67
2023/04/16 03:04:18;;;;;;;20.73;13.50;;;10.10;99.90;;;;;;20842244;28;20201;-67
2023/04/16 03:14:19;;;;;;;18.93;13.57;;;10.20;99.90;;;;;;20841893;28;20239;-68
2023/04/16 03:24:21;;;;;;;21.17;13.97;;;;;;;;;;20840621;28;20219;-67
2023/04/16 03:34:23;;;;;;;23.40;14.60;;;10.20;99.90;;;;;;20839980;28;20234;-67
2023/04/16 03:44:25;;;;;;;22.77;14.77;;;10.30;99.90;;;;;;20839910;28;20210;-67
2023/04/16 03:54:26;;;;;;;21.87;15.07;;;10.30;99.90;;;;;;20837773;28;20241;-67
2023/04/16 04:04:28;;;;;;;24.70;15.30;;;10.30;99.90;;;;;;20837891;28;20207;-68
2023/04/16 04:14:30;;;;;;;21.90;14.87;;;10.40;99.90;;;;;;20837435;28;20336;-68
2023/04/16 04:24:31;;;;;;;25.00;16.50;;;10.30;99.90;;;;;;20836015;28;20238;-67
2023/04/16 04:34:33;;;;;;;26.33;17.63;;;10.30;99.90;;;;;;20835265;28;20245;-67
2023/04/16 04:44:35;;;;;;;27.00;18.70;;;10.30;99.90;;;;;;20834920;28;20220;-67
2023/04/16 04:54:40;;;;;;;22.37;15.80;;;10.30;99.90;;;;;;20833766;28;20260;-67
2023/04/16 05:04:41;;;;;;;24.67;17.13;;;10.20;99.90;;;;;;20833068;28;20575;-67
2023/04/16 05:14:43;;;;;;;27.37;18.47;;;10.20;99.90;;;;;;20832823;28;20325;-68
2023/04/16 05:24:45;;;;;;;24.10;17.67;;;10.20;99.90;;;;;;20831566;28;20242;-67
2023/04/16 05:34:46;;;;;;;27.97;18.57;;;10.20;99.90;;;;;;20831088;28;20245;-67
2023/04/16 05:44:50;;;;;;;30.33;19.90;;;10.30;99.90;;;;;;20831043;28;20225;-67
2023/04/16 05:54:53;;;;;;;27.17;18.17;;;10.30;99.90;;;;;;20830780;28;20237;-68
2023/04/16 06:04:55;;;;;;;23.00;16.10;;;10.40;99.90;;;;;;20829736;28;20218;-69
2023/04/16 06:14:56;;;;;;;22.83;15.73;;;10.50;99.90;;;;;;20836846;28;20264;-68
2023/04/16 06:24:58;;;;;;;21.43;14.87;;;10.30;99.90;;;;;;20845370;28;20764;-67
2023/04/16 06:35:00;;;;;;;23.10;15.37;;;10.40;99.90;;;;;;20844709;28;20304;-65
2023/04/16 06:45:01;;;;;;;20.47;14.03;;;10.40;99.90;;;;;;20843891;28;20219;-73
2023/04/16 06:55:03;;;;;;;19.97;14.00;;;10.50;99.90;;;;;;20842697;28;20297;-70
2023/04/16 07:05:06;;;;;;;22.17;15.27;;;10.50;99.90;;;;;;20842064;28;20206;-69
2023/04/16 07:15:10;;;;;;;18.50;13.23;;;;;;;;;;20840253;28;20234;-69
2023/04/16 07:25:12;;;;;;;17.70;12.37;;;10.80;99.90;;;;;;20839177;28;20346;-70
2023/04/16 07:35:14;;;;;;;20.83;13.10;;;10.90;99.90;;;;;;20839574;28;20238;-67
2023/04/16 07:45:16;;;;;;;19.07;12.77;;;11.00;99.90;;;;;;20831292;28;20213;-69
2023/04/16 07:55:18;;;;;;;15.53;12.30;;;11.00;99.90;;;;;;20777820;28;20241;-67
2023/04/16 08:05:20;;;;;;;16.23;11.77;;;11.00;99.90;;;;;;20824390;28;20220;-70
2023/04/16 08:15:22;;;;;;;15.03;10.63;;;11.00;99.90;;;;;;20837209;28;20250;-70
2023/04/16 08:25:23;;;;;;;13.63;10.23;;;10.90;99.90;;;;;;20835704;28;20233;-70
2023/04/16 08:35:26;;;;;;;12.40;9.47;;;11.00;99.90;;;;;;20835040;28;20239;-70
2023/04/16 08:45:28;;;;;;;12.47;9.37;;;11.10;99.90;;;;;;20835401;28;20240;-67
2023/04/16 08:55:38;;;;;;;12.77;9.13;;;11.20;99.90;;;;;;20833703;28;20231;-69
2023/04/16 09:05:41;;;;;;;11.23;8.50;;;11.40;99.90;;;;;;20813600;28;20598;-69
2023/04/16 09:15:43;;;;;;;10.17;7.97;;;11.50;99.90;;;;;;20804140;28;20597;-72
2023/04/16 09:25:44;;;;;;;9.90;7.23;;;11.60;99.90;;;;;;20766276;28;20233;-68
2023/04/16 09:35:51;;;;;;;8.90;7.20;;;11.60;99.90;;;;;;20757217;28;20236;-68
2023/04/16 09:45:53;;;;;;;8.77;6.80;;;11.80;99.90;;;;;;20830123;28;20573;-68
2023/04/16 09:56:00;;;;;;;7.10;6.27;;;11.90;99.90;;;;;;20830073;28;20711;-66
2023/04/16 10:06:13;;;;;;;7.73;5.27;;;11.80;99.90;;;;;;20829925;28;20217;-67
2023/04/16 10:16:15;;;;;;;5.77;5.17;;;11.70;99.90;;;;;;20769923;28;20243;-67
2023/04/16 10:26:17;;;;;;;7.70;5.17;;;11.80;99.90;;;;;;20747224;28;20600;-67
2023/04/16 10:36:23;;;;;;;5.63;4.80;;;11.80;99.90;;;;;;20746500;28;20310;-68
2023/04/16 10:46:29;;;;;;;5.50;4.73;;;11.90;99.90;;;;;;20746676;28;20223;-67
2023/04/16 10:56:33;;;;;;;8.97;7.43;;;12.00;99.90;;;;;;20746141;28;20243;-68
2023/04/16 11:06:36;;;;;;;5.53;4.33;;;12.20;99.90;;;;;;20760036;28;20233;-66
2023/04/16 11:16:40;;;;;;;5.60;4.50;;;12.50;99.90;;;;;;20823081;28;20264;-74
2023/04/16 11:26:41;;;;;;;7.30;4.60;;;12.50;99.90;;;;;;20840650;28;20232;-73
2023/04/16 11:36:44;;;;;;;6.53;4.97;;;13.20;99.90;;;;;;20840116;28;20361;-71
2023/04/16 11:46:47;;;;;;;6.03;5.10;;;13.50;99.90;;;;;;20839549;28;20214;-71
2023/04/16 11:56:51;;;;;;;5.47;4.83;;;13.50;99.80;;;;;;20838585;28;20720;-70
2023/04/16 12:07:11;;;;;;;5.53;4.73;;;13.60;99.30;;;;;;20838155;28;20208;-71
2023/04/16 12:17:18;;;;;;;5.30;4.47;;;13.60;99.50;;;;;;20768073;28;20241;-74
2023/04/16 12:27:21;;;;;;;7.37;5.10;;;13.80;99.30;;;;;;20753541;28;20705;-72
2023/04/16 12:37:23;;;;;;;6.63;4.50;;;13.40;98.90;;;;;;20752846;28;20298;-72
2023/04/16 12:47:24;;;;;;;5.73;5.00;;;13.20;99.00;;;;;;20752920;28;20549;-72
2023/04/16 12:57:27;;;;;;;5.70;5.10;;;13.00;99.00;;;;;;20751853;28;20243;-72
2023/04/16 13:07:31;;;;;;;5.97;5.20;;;13.20;98.90;;;;;;20751708;28;20212;-71
2023/04/16 13:17:32;;;;;;;5.50;4.77;;;13.10;98.50;;;;;;20820291;28;20236;-72
2023/04/16 13:27:34;;;;;;;6.23;5.53;;;13.00;98.50;;;;;;20830826;28;20230;-71
2023/04/16 13:37:36;;;;;;;6.03;5.10;;;13.00;98.80;;;;;;20831131;28;20699;-73
2023/04/16 13:47:42;;;;;;;7.10;5.70;;;13.10;98.80;;;;;;20830263;28;20241;-72
2023/04/16 13:57:49;;;;;;;11.00;6.00;;;12.80;98.40;;;;;;20830871;28;20237;-72
2023/04/16 14:07:50;;;;;;;7.43;5.90;;;12.50;98.50;;;;;;20830082;28;20567;-70
2023/04/16 14:17:52;;;;;;;6.90;6.03;;;12.50;98.80;;;;;;20756512;28;20268;-71
2023/04/16 14:27:54;;;;;;;7.43;6.17;;;12.40;98.70;;;;;;20747734;28;20320;-77
2023/04/16 14:37:57;;;;;;;8.50;6.47;;;12.50;98.70;;;;;;20756535;28;20244;-71
2023/04/16 14:47:58;;;;;;;9.47;5.83;;;12.70;98.90;;;;;;20761849;28;20210;-67
2023/04/16 14:58:00;;;;;;;8.60;6.63;;;13.40;98.50;;;;;;20784767;28;20461;-63
2023/04/16 15:08:02;;;;;;;8.90;6.80;;;13.30;98.20;;;;;;20802989;28;20213;-71
2023/04/16 15:18:04;;;;;;;9.77;7.33;;;13.10;97.60;;;;;;20797886;28;20650;-71
2023/04/16 15:28:06;;;;;;;7.37;6.40;;;12.80;97.50;;;;;;20792845;28;20324;-71
2023/04/16 15:38:08;;;;;;;10.10;6.83;;;12.90;97.50;;;;;;20796751;28;20230;-76
2023/04/16 15:48:09;;;;;;;8.37;6.53;;;12.90;97.70;;;;;;20798056;28;20220;-74
2023/04/16 15:58:12;;;;;;;10.53;7.40;;;12.50;97.60;;;;;;20797115;28;20246;-75
2023/04/16 16:08:15;;;;;;;10.57;7.60;;;12.30;97.90;;;;;;20785088;28;20683;-88
2023/04/16 16:18:17;;;;;;;9.07;7.37;;;12.00;98.30;;;;;;20832633;28;20241;-77
2023/04/16 16:28:19;;;;;;;8.67;6.47;;;12.10;98.70;;;;;;20836672;28;20237;-76
2023/04/16 16:38:21;;;;;;;7.73;6.27;;;12.00;98.50;;;;;;20832394;28;20253;-71
2023/04/16 16:48:22;;;;;;;9.20;6.10;;;12.00;98.80;;;;;;20834978;28;20219;-73
2023/04/16 16:58:24;;;;;;;6.97;5.70;;;12.00;98.90;;;;;;20834092;28;20238;-73
2023/04/16 17:08:27;;;;;;;7.20;5.73;;;12.00;98.60;;;;;;20833165;28;20270;-71
2023/04/16 17:18:28;;;;;;;5.37;4.67;;;11.90;98.60;;;;;;20831091;28;20239;-72
2023/04/16 17:28:30;;;;;;;5.53;4.70;;;12.00;98.70;;;;;;20826248;28;20243;-71
2023/04/16 17:38:32;;;;;;;5.80;4.67;;;11.90;98.60;;;;;;20792232;28;20236;-71
2023/04/16 17:48:34;;;;;;;6.30;5.13;;;11.80;98.70;;;;;;20748752;28;20667;-69
2023/04/16 17:58:36;;;;;;;6.67;5.43;;;11.60;98.70;;;;;;20748929;28;20241;-71
2023/04/16 18:08:38;;;;;;;7.20;6.10;;;11.60;99.00;;;;;;20748944;28;20210;-70
2023/04/16 18:18:39;;;;;;;6.97;6.17;;;11.50;99.20;;;;;;20764508;28;20686;-71
2023/04/16 18:28:41;;;;;;;9.47;7.07;;;11.40;99.30;;;;;;20771018;28;20230;-69
2023/04/16 18:38:43;;;;;;;9.27;7.37;;;11.30;99.50;;;;;;20809515;28;20228;-69
2023/04/16 18:49:01;;;;;;;11.67;7.70;;;11.20;99.70;;;;;;20835720;28;20217;-71
2023/04/16 18:59:03;;;;;;;11.13;8.00;;;11.20;99.80;;;;;;20840055;28;20689;-71
2023/04/16 19:09:05;;;;;;;11.47;8.60;;;11.20;99.90;;;;;;20842570;28;20716;-71
2023/04/16 19:19:07;;;;;;;10.87;8.60;;;11.30;99.90;;;;;;20841749;28;20632;-70
2023/04/16 19:29:09;;;;;;;13.13;9.07;;;11.30;99.90;;;;;;20841505;28;20278;-71
2023/04/16 19:39:11;;;;;;;11.63;9.60;;;11.30;99.90;;;;;;20840283;28;20689;-71
2023/04/16 19:49:12;;;;;;;14.67;10.40;;;11.20;99.90;;;;;;20805113;28;20220;-70
2023/04/16 19:59:14;;;;;;;11.97;9.23;;;11.20;99.90;;;;;;20804646;28;20236;-71
2023/04/16 20:09:18;;;;;;;14.40;10.10;;;11.30;99.90;;;;;;20795727;28;20211;-70
2023/04/16 20:19:20;;;;;;;14.50;10.63;;;11.30;99.90;;;;;;20793989;28;20242;-71
2023/04/16 20:29:22;;;;;;;15.07;10.70;;;11.20;99.90;;;;;;20796780;28;20290;-70
2023/04/16 20:39:25;;;;;;;20.60;14.03;;;11.30;99.90;;;;;;20796955;28;20619;-71
2023/04/16 20:49:26;;;;;;;16.63;11.63;;;11.20;99.90;;;;;;20793776;28;20204;-71
2023/04/16 20:59:28;;;;;;;15.80;12.20;;;11.10;99.90;;;;;;20795341;28;20231;-71
2023/04/16 21:09:30;;;;;;;16.53;12.03;;;11.10;99.90;;;;;;20792581;28;20582;-71
2023/04/16 21:19:32;;;;;;;22.90;13.07;;;11.10;99.90;;;;;;20787290;28;20279;-70
2023/04/16 21:29:33;;;;;;;16.70;11.63;;;11.10;99.90;;;;;;20793174;28;20244;-70
2023/04/16 21:39:35;;;;;;;17.13;11.83;;;11.20;99.90;;;;;;20813011;28;20307;-70
2023/04/16 21:49:37;;;;;;;17.70;12.43;;;11.20;99.90;;;;;;20827894;28;20284;-70
2023/04/16 21:59:38;;;;;;;18.43;12.73;;;11.00;99.90;;;;;;20801947;28;20741;-70
2023/04/16 22:09:40;;;;;;;18.73;12.73;;;11.10;99.90;;;;;;20746977;28;20218;-70
2023/04/16 22:19:43;;;;;;;19.20;12.47;;;11.10;99.90;;;;;;20746710;28;20285;-71
2023/04/16 22:29:45;;;;;;;20.07;12.83;;;10.90;99.90;;;;;;20747896;28;20709;-71
2023/04/16 22:39:46;;;;;;;18.93;12.87;;;10.90;99.90;;;;;;20747047;28;20266;-70
2023/04/16 22:49:48;;;;;;;17.90;12.07;;;10.80;99.90;;;;;;20746796;28;20215;-72
2023/04/16 22:59:50;;;;;;;19.23;12.77;;;10.60;99.90;;;;;;20757929;28;20578;-72
2023/04/16 23:09:52;;;;;;;17.00;11.97;;;10.70;99.90;;;;;;20760909;28;20630;-72
2023/04/16 23:19:54;;;;;;;16.73;12.40;;;10.60;99.90;;;;;;20760108;28;20708;-72
2023/04/16 23:29:55;;;;;;;16.33;12.33;;;10.60;99.90;;;;;;20759548;28;20306;-72
2023/04/16 23:39:57;;;;;;;17.87;12.43;;;10.60;99.90;;;;;;20758556;28;20243;-72
2023/04/16 23:49:59;;;;;;;15.57;11.70;;;10.50;99.90;;;;;;20758173;28;20216;-72
